Ancora, New Jersey
Current Conditions -  °F | °C
As of 2:05 PM on Saturday 20 Dec 2014 (Local Time) from KACY Reporting Station
Overcast Overcast  
Wind Chill: 29°   Ceiling: 2900
Heat Index: 35°   Visibility: 10mi
Dew Point: 22°   Wind: 7mph
Humidity: 59%   Direction: 350°N
Pressure: 30.25"   Gusts: NA
Location:  39.637°N, 74.7602°W
Report Text: KACY 201905Z 35006KT 10SM OVC029 02/M06 A3025 RMK AO2 T00171056
Loading
Personal Weather Stations






























Interactive Weather Map New forecast layout! Learn more

10-Day Weather Forecast

Advertisements
Track Severe Weather on mobile